createdAt,value
2024-01-14T00:02:29.894Z,66.07
2024-01-14T00:05:04.652Z,66.53
2024-01-14T00:07:34.101Z,66.13
2024-01-14T00:13:09.882Z,66.45
2024-01-14T00:15:38.824Z,66.14
2024-01-14T00:18:07.736Z,65.86
2024-01-14T00:20:36.983Z,66.22
2024-01-14T00:23:05.834Z,66.30
2024-01-14T00:25:37.557Z,67.02
2024-01-14T00:32:00.347Z,67.23
2024-01-14T00:34:31.138Z,67.52
2024-01-14T00:37:04.021Z,67.88
2024-01-14T00:39:38.544Z,67.80
2024-01-14T00:42:08.514Z,68.63
2024-01-14T00:44:37.503Z,69.06
2024-01-14T00:47:14.364Z,68.89
2024-01-14T00:49:54.300Z,68.58
2024-01-14T00:52:37.594Z,68.17
2024-01-14T00:55:10.478Z,68.31
2024-01-14T00:57:39.132Z,67.80
2024-01-14T01:00:10.850Z,67.82
2024-01-14T01:02:39.787Z,67.32
2024-01-14T01:05:08.860Z,67.58
2024-01-14T01:07:37.481Z,67.56
2024-01-14T01:10:07.379Z,67.73
2024-01-14T01:12:36.411Z,68.45
2024-01-14T01:15:10.081Z,68.62
2024-01-14T01:17:38.717Z,68.76
2024-01-14T01:20:09.513Z,68.86
2024-01-14T01:22:38.098Z,68.21
2024-01-14T01:25:07.284Z,67.49
2024-01-14T01:27:35.907Z,68.03
2024-01-14T01:30:05.541Z,68.14
2024-01-14T01:32:34.113Z,68.31
2024-01-14T01:35:02.834Z,68.22
2024-01-14T01:37:31.517Z,68.40
2024-01-14T01:40:00.090Z,67.95
2024-01-14T01:42:28.963Z,67.93
2024-01-14T01:44:57.562Z,68.65
2024-01-14T01:47:26.249Z,69.12
2024-01-14T01:49:55.008Z,69.13
2024-01-14T01:52:24.924Z,69.57
2024-01-14T01:54:56.300Z,68.02
2024-01-14T01:57:25.412Z,67.83
2024-01-14T01:59:54.140Z,67.97
2024-01-14T02:02:23.664Z,67.73
2024-01-14T02:04:52.710Z,68.85
2024-01-14T02:07:21.782Z,69.00
2024-01-14T02:09:50.448Z,68.36
2024-01-14T02:12:19.215Z,68.35
2024-01-14T02:14:47.845Z,68.27
2024-01-14T02:17:16.799Z,68.44
2024-01-14T02:19:45.541Z,68.74
2024-01-14T02:22:24.308Z,69.38
2024-01-14T02:24:54.656Z,69.15
2024-01-14T02:27:24.263Z,69.36
2024-01-14T02:29:55.223Z,69.44
2024-01-14T02:32:23.909Z,68.58
2024-01-14T02:34:53.426Z,68.96
2024-01-14T02:37:22.044Z,68.30
2024-01-14T02:39:51.071Z,68.25
2024-01-14T02:42:19.641Z,68.71
2024-01-14T02:44:48.200Z,68.93
2024-01-14T02:47:16.842Z,68.66
2024-01-14T02:49:45.401Z,68.44
2024-01-14T02:52:13.972Z,68.79
2024-01-14T02:54:42.542Z,69.44
2024-01-14T02:57:11.144Z,69.37
2024-01-14T02:59:39.667Z,69.22
2024-01-14T03:02:08.278Z,69.19
2024-01-14T03:04:37.015Z,69.51
2024-01-14T03:07:05.624Z,69.94
2024-01-14T03:09:34.176Z,70.21
2024-01-14T03:12:02.919Z,70.47
2024-01-14T03:14:31.729Z,70.69
2024-01-14T03:17:00.991Z,70.65
2024-01-14T03:19:29.800Z,70.28
2024-01-14T03:22:01.672Z,70.34
2024-01-14T03:24:30.336Z,70.41
2024-01-14T03:26:58.941Z,70.60
2024-01-14T03:29:27.472Z,70.23
2024-01-14T03:31:56.056Z,70.71
2024-01-14T03:34:24.840Z,70.06
2024-01-14T03:36:53.428Z,71.11
2024-01-14T03:39:22.103Z,70.52
2024-01-14T03:41:50.756Z,71.09
2024-01-14T03:44:19.694Z,70.89
2024-01-14T03:46:48.264Z,70.97
2024-01-14T03:49:17.163Z,71.16
2024-01-14T03:51:46.343Z,70.88
2024-01-14T03:54:15.174Z,71.46
2024-01-14T03:56:43.765Z,72.22
2024-01-14T03:59:12.551Z,71.27
2024-01-14T04:01:41.059Z,71.10
2024-01-14T04:04:09.709Z,71.19
2024-01-14T04:06:38.522Z,70.94
2024-01-14T04:09:07.206Z,71.04
2024-01-14T04:11:35.871Z,71.45
2024-01-14T04:14:04.549Z,71.46
2024-01-14T04:16:42.834Z,70.99
2024-01-14T04:19:11.473Z,71.16
2024-01-14T04:21:40.010Z,71.24
2024-01-14T04:24:09.494Z,71.64
2024-01-14T04:26:38.018Z,71.97
2024-01-14T04:29:06.647Z,72.27
2024-01-14T04:31:35.380Z,72.55
2024-01-14T04:34:05.085Z,72.75
2024-01-14T04:36:33.889Z,72.95
2024-01-14T04:39:02.789Z,72.63
2024-01-14T04:41:31.292Z,72.17
2024-01-14T04:43:59.868Z,71.33
2024-01-14T04:46:28.802Z,71.57
2024-01-14T04:48:57.913Z,70.97
2024-01-14T04:51:26.641Z,70.71
2024-01-14T04:53:55.161Z,71.21
2024-01-14T04:56:23.721Z,71.47
2024-01-14T04:58:52.405Z,70.52
2024-01-14T05:01:21.056Z,69.62
2024-01-14T05:03:49.840Z,70.08
2024-01-14T05:06:18.665Z,70.30
2024-01-14T05:08:47.315Z,70.38
2024-01-14T05:11:15.877Z,70.21
2024-01-14T05:13:44.359Z,70.90
2024-01-14T05:16:12.940Z,70.73
2024-01-14T05:18:42.950Z,71.31
2024-01-14T05:21:18.553Z,71.91
2024-01-14T05:23:47.262Z,71.77
2024-01-14T05:26:15.819Z,71.83
2024-01-14T05:28:44.419Z,71.72
2024-01-14T05:31:13.103Z,71.62
2024-01-14T05:33:41.722Z,72.45
2024-01-14T05:36:10.421Z,73.17
2024-01-14T05:38:38.904Z,73.38
2024-01-14T05:41:07.384Z,73.17
2024-01-14T05:43:35.911Z,73.18
2024-01-14T05:46:05.255Z,72.46
2024-01-14T05:48:35.124Z,72.37
2024-01-14T05:51:04.067Z,72.72
2024-01-14T05:53:32.592Z,72.77
2024-01-14T05:56:01.518Z,72.04
2024-01-14T05:58:31.097Z,71.84
2024-01-14T06:01:00.207Z,72.21
2024-01-14T06:03:28.762Z,71.67
2024-01-14T06:05:57.696Z,71.80
2024-01-14T06:08:26.379Z,71.85
2024-01-14T06:10:54.895Z,71.61
2024-01-14T06:13:23.454Z,71.76
2024-01-14T06:15:52.007Z,71.45
2024-01-14T06:18:20.638Z,71.18
2024-01-14T06:20:49.995Z,70.80
2024-01-14T06:23:18.592Z,71.02
2024-01-14T06:25:47.602Z,71.83
2024-01-14T06:28:16.371Z,70.94
2024-01-14T06:30:45.154Z,71.46
2024-01-14T06:33:14.351Z,71.58
2024-01-14T06:35:43.403Z,71.33
2024-01-14T06:38:11.969Z,71.71
2024-01-14T06:40:42.729Z,71.56
2024-01-14T06:43:13.331Z,71.00
2024-01-14T06:45:41.892Z,71.27
2024-01-14T06:48:10.506Z,71.93
2024-01-14T06:50:39.106Z,72.23
2024-01-14T06:53:07.621Z,72.22
2024-01-14T06:55:36.114Z,71.61
2024-01-14T06:58:04.932Z,71.16
2024-01-14T07:00:33.941Z,70.95
2024-01-14T07:03:02.614Z,70.60
2024-01-14T07:05:31.510Z,70.31
2024-01-14T07:08:00.040Z,70.25
2024-01-14T07:10:28.543Z,70.16
2024-01-14T07:12:57.066Z,70.52
2024-01-14T07:15:25.643Z,70.23
2024-01-14T07:17:57.020Z,70.10
2024-01-14T07:20:29.132Z,70.37
2024-01-14T07:23:39.158Z,70.00
2024-01-14T07:25:46.494Z,69.41
2024-01-14T07:28:15.513Z,69.34
2024-01-14T07:30:44.172Z,69.28
2024-01-14T07:33:13.095Z,70.32
2024-01-14T07:35:41.637Z,69.13
2024-01-14T07:38:10.256Z,68.79
2024-01-14T07:40:38.834Z,68.34
2024-01-14T07:43:07.455Z,68.29
2024-01-14T07:45:36.159Z,67.85
2024-01-14T07:48:05.250Z,67.12
2024-01-14T07:50:33.891Z,67.72
2024-01-14T07:53:02.681Z,67.23
2024-01-14T07:55:31.913Z,66.68
2024-01-14T07:58:00.466Z,66.80
2024-01-14T08:00:29.718Z,67.43
2024-01-14T08:02:58.365Z,66.67
2024-01-14T08:05:27.010Z,67.35
2024-01-14T08:07:55.582Z,66.71
2024-01-14T08:10:24.135Z,67.05
2024-01-14T08:12:52.929Z,67.21
2024-01-14T08:15:21.632Z,66.77
2024-01-14T08:17:50.217Z,66.31
2024-01-14T08:20:18.952Z,66.38
2024-01-14T08:22:47.534Z,65.34
2024-01-14T08:25:16.363Z,66.36
2024-01-14T08:27:44.863Z,65.63
2024-01-14T08:30:18.132Z,66.32
2024-01-14T08:32:47.140Z,66.06
2024-01-14T08:35:15.821Z,65.74
2024-01-14T08:37:47.588Z,65.36
2024-01-14T08:40:17.652Z,64.83
2024-01-14T08:42:47.155Z,64.30
2024-01-14T08:45:17.745Z,64.95
2024-01-14T08:47:46.961Z,64.79
2024-01-14T08:50:15.903Z,64.40
2024-01-14T08:52:44.580Z,64.29
2024-01-14T08:55:16.130Z,63.90
2024-01-14T08:57:44.745Z,63.38
2024-01-14T09:00:14.021Z,63.13
2024-01-14T09:02:45.193Z,62.89
2024-01-14T09:05:14.642Z,62.84
2024-01-14T09:07:43.636Z,62.79
2024-01-14T09:10:12.269Z,63.47
2024-01-14T09:12:40.978Z,63.22
2024-01-14T09:15:10.162Z,62.46
2024-01-14T09:17:38.945Z,61.94
2024-01-14T09:20:08.972Z,62.28
2024-01-14T09:22:37.617Z,62.16
2024-01-14T09:25:06.445Z,61.79
2024-01-14T09:27:36.619Z,61.17
2024-01-14T09:30:06.198Z,61.86
2024-01-14T09:32:35.191Z,61.93
2024-01-14T09:35:03.830Z,60.67
2024-01-14T09:37:32.366Z,60.94
2024-01-14T09:40:00.924Z,60.84
2024-01-14T09:42:36.309Z,60.52
2024-01-14T09:45:07.405Z,59.95
2024-01-14T09:47:37.443Z,59.60
2024-01-14T09:50:08.228Z,60.44
2024-01-14T09:52:40.933Z,60.60
2024-01-14T09:55:11.924Z,60.06
2024-01-14T09:57:43.925Z,60.28
2024-01-14T10:00:14.682Z,60.64
2024-01-14T10:02:43.788Z,60.12
2024-01-14T10:05:13.078Z,59.65
2024-01-14T10:07:42.789Z,59.52
2024-01-14T10:10:11.966Z,58.61
2024-01-14T10:12:40.591Z,58.89
2024-01-14T10:15:09.943Z,59.18
2024-01-14T10:17:38.591Z,59.09
2024-01-14T10:20:08.401Z,59.05
2024-01-14T10:22:37.823Z,58.28
2024-01-14T10:25:06.658Z,58.59
2024-01-14T10:27:37.869Z,58.04
2024-01-14T10:30:13.333Z,58.60
2024-01-14T10:33:17.057Z,58.30
2024-01-14T10:35:33.730Z,56.92
2024-01-14T10:38:03.338Z,56.59
2024-01-14T10:40:32.519Z,57.39
2024-01-14T10:43:06.389Z,58.57
2024-01-14T10:45:35.139Z,58.39
2024-01-14T10:48:11.367Z,58.28
2024-01-14T10:50:48.216Z,56.76
2024-01-14T10:53:25.074Z,57.92
2024-01-14T10:56:05.067Z,58.03
2024-01-14T10:58:38.174Z,57.63
2024-01-14T11:01:12.522Z,58.03
2024-01-14T11:03:43.022Z,57.46
2024-01-14T11:06:13.847Z,58.51
2024-01-14T11:08:42.674Z,57.63
2024-01-14T11:11:11.906Z,57.36
2024-01-14T11:14:05.479Z,57.14
2024-01-14T11:16:57.615Z,56.98
2024-01-14T11:19:37.057Z,57.40
2024-01-14T11:22:32.620Z,57.50
2024-01-14T11:25:06.988Z,58.09
2024-01-14T11:27:36.082Z,58.55
2024-01-14T11:30:08.131Z,58.70
2024-01-14T11:32:36.822Z,58.53
2024-01-14T11:35:07.063Z,58.65
2024-01-14T11:37:48.810Z,59.58
2024-01-14T11:40:30.801Z,59.48
2024-01-14T11:43:11.905Z,60.34
2024-01-14T11:45:41.752Z,59.63
2024-01-14T11:48:13.346Z,61.28
2024-01-14T11:50:42.630Z,61.28
2024-01-14T11:53:12.763Z,60.74
2024-01-14T11:55:42.797Z,61.89
2024-01-14T11:58:15.627Z,62.32
2024-01-14T12:00:48.196Z,62.76
2024-01-14T12:03:17.854Z,63.18
2024-01-14T12:05:47.776Z,62.37
2024-01-14T12:08:18.487Z,61.87
2024-01-14T12:10:47.980Z,62.19
2024-01-14T12:13:19.285Z,62.47
2024-01-14T12:15:55.743Z,62.26
2024-01-14T12:18:45.600Z,63.06
2024-01-14T12:21:27.411Z,62.37
2024-01-14T12:24:01.488Z,62.54
2024-01-14T12:26:31.253Z,62.82
2024-01-14T12:28:59.740Z,62.74
2024-01-14T12:31:31.077Z,63.04
2024-01-14T12:34:09.745Z,63.64
2024-01-14T12:36:46.073Z,64.36
2024-01-14T12:39:22.018Z,64.27
2024-01-14T12:41:54.680Z,64.63
2024-01-14T12:44:27.799Z,64.61
2024-01-14T12:47:14.631Z,64.83
2024-01-14T12:49:45.884Z,64.47
2024-01-14T12:52:14.680Z,64.28
2024-01-14T12:54:51.273Z,64.64
2024-01-14T12:57:24.114Z,64.16
2024-01-14T12:59:53.847Z,64.27
2024-01-14T13:02:22.476Z,64.93
2024-01-14T13:04:51.063Z,65.36
2024-01-14T13:07:19.695Z,65.74
2024-01-14T13:09:48.471Z,65.25
2024-01-14T13:12:17.244Z,65.19
2024-01-14T13:14:46.806Z,66.00
2024-01-14T13:17:15.338Z,65.65
2024-01-14T13:19:43.867Z,65.74
2024-01-14T13:22:12.668Z,65.70
2024-01-14T13:24:41.199Z,65.99
2024-01-14T13:27:12.495Z,66.31
2024-01-14T13:29:41.063Z,66.22
2024-01-14T13:32:09.822Z,66.63
2024-01-14T13:34:38.662Z,66.84
2024-01-14T13:37:07.446Z,67.33
2024-01-14T13:39:36.512Z,66.68
2024-01-14T13:42:05.588Z,67.03
2024-01-14T13:44:34.285Z,66.51
2024-01-14T13:47:03.672Z,66.52
2024-01-14T13:49:32.811Z,67.48
2024-01-14T13:52:01.320Z,67.58
2024-01-14T13:54:30.034Z,67.21
2024-01-14T13:57:02.165Z,67.71
2024-01-14T13:59:31.019Z,67.82
2024-01-14T14:01:59.618Z,68.80
2024-01-14T14:04:28.531Z,68.99
2024-01-14T14:06:58.019Z,69.32
2024-01-14T14:09:26.801Z,69.86
2024-01-14T14:11:55.607Z,69.86
2024-01-14T14:14:24.315Z,70.02
2024-01-14T14:16:52.994Z,70.46
2024-01-14T14:19:21.828Z,70.62
2024-01-14T14:21:58.711Z,70.29
2024-01-14T14:24:34.400Z,70.85
2024-01-14T14:27:03.366Z,71.43
2024-01-14T14:29:32.135Z,70.84
2024-01-14T14:32:01.100Z,71.30
2024-01-14T14:34:29.974Z,71.81
2024-01-14T14:36:58.644Z,71.63
2024-01-14T14:39:28.633Z,72.07
2024-01-14T14:41:58.415Z,72.03
2024-01-14T14:44:27.046Z,72.56
2024-01-14T14:46:55.653Z,72.95
2024-01-14T14:49:24.264Z,72.76
2024-01-14T14:51:52.881Z,72.79
2024-01-14T14:54:21.417Z,72.98
2024-01-14T14:56:50.057Z,73.17
2024-01-14T14:59:20.867Z,73.87
2024-01-14T15:01:50.922Z,73.70
2024-01-14T15:04:20.322Z,74.20
2024-01-14T15:06:49.102Z,73.73
2024-01-14T15:09:17.871Z,74.19
2024-01-14T15:11:47.649Z,73.87
2024-01-14T15:14:16.181Z,74.14
2024-01-14T15:16:45.320Z,74.07
2024-01-14T15:19:14.074Z,74.54
2024-01-14T15:21:43.357Z,74.37
2024-01-14T15:24:12.342Z,74.07
2024-01-14T15:26:41.103Z,73.84
2024-01-14T15:29:09.608Z,73.82
2024-01-14T15:31:38.477Z,73.05
2024-01-14T15:34:07.575Z,72.93
2024-01-14T15:36:36.458Z,72.98
2024-01-14T15:39:05.346Z,72.57
2024-01-14T15:41:37.637Z,71.86
2024-01-14T15:44:06.167Z,71.70
2024-01-14T15:46:34.661Z,70.62
2024-01-14T15:49:03.489Z,71.94
2024-01-14T15:51:32.385Z,70.89
2024-01-14T15:54:01.107Z,70.49
2024-01-14T15:56:29.867Z,69.94
2024-01-14T15:58:58.906Z,70.30
2024-01-14T16:01:27.778Z,70.19
2024-01-14T16:03:56.730Z,68.99
2024-01-14T16:06:25.489Z,69.22
2024-01-14T16:08:54.006Z,68.78
2024-01-14T16:11:22.524Z,69.14
2024-01-14T16:13:51.156Z,68.79
2024-01-14T16:16:19.826Z,68.39
2024-01-14T16:18:48.427Z,68.56
2024-01-14T16:21:17.163Z,69.69
2024-01-14T16:23:46.981Z,69.20
2024-01-14T16:26:15.635Z,68.61
2024-01-14T16:28:44.787Z,68.42
2024-01-14T16:31:14.693Z,68.17
2024-01-14T16:33:48.205Z,67.78
2024-01-14T16:36:18.589Z,67.54
2024-01-14T16:38:48.532Z,68.83
2024-01-14T16:41:18.138Z,69.72
2024-01-14T16:43:48.931Z,69.16
2024-01-14T16:46:19.524Z,68.54
2024-01-14T16:48:48.295Z,69.56
2024-01-14T16:51:21.212Z,69.65
2024-01-14T16:53:50.069Z,69.82
2024-01-14T16:56:19.520Z,69.70
2024-01-14T16:58:48.006Z,68.88
2024-01-14T17:01:19.172Z,69.40
2024-01-14T17:03:52.623Z,69.65
2024-01-14T17:06:21.635Z,69.82
2024-01-14T17:08:51.212Z,70.09
2024-01-14T17:11:24.036Z,69.82
2024-01-14T17:13:52.780Z,68.57
2024-01-14T17:16:25.473Z,69.16
2024-01-14T17:19:00.025Z,69.20
2024-01-14T17:21:29.826Z,68.53
2024-01-14T17:23:58.493Z,69.03
2024-01-14T17:26:27.752Z,68.66
2024-01-14T17:28:56.665Z,67.13
2024-01-14T17:31:25.382Z,68.06
2024-01-14T17:33:54.390Z,68.27
2024-01-14T17:36:23.682Z,68.93
2024-01-14T17:38:52.710Z,69.07
2024-01-14T17:41:21.360Z,68.89
2024-01-14T17:43:50.171Z,68.55
2024-01-14T17:46:22.094Z,69.11
2024-01-14T17:48:54.564Z,68.15
2024-01-14T17:51:24.342Z,68.33
2024-01-14T17:53:53.412Z,68.44
2024-01-14T17:56:23.127Z,68.50
2024-01-14T17:58:51.816Z,67.91
2024-01-14T18:01:20.433Z,68.12
2024-01-14T18:03:49.478Z,68.06
2024-01-14T18:06:18.255Z,67.49
2024-01-14T18:08:46.820Z,68.32
2024-01-14T18:11:15.495Z,68.78
2024-01-14T18:13:44.053Z,68.64
2024-01-14T18:16:13.040Z,68.54
2024-01-14T18:18:44.070Z,68.87
2024-01-14T18:21:17.192Z,69.58
2024-01-14T18:23:45.829Z,68.77
2024-01-14T18:26:15.254Z,68.94
2024-01-14T18:28:43.785Z,68.71
2024-01-14T18:31:16.222Z,68.93
2024-01-14T18:33:47.378Z,69.81
2024-01-14T18:36:17.314Z,69.50
2024-01-14T18:38:47.192Z,69.66
2024-01-14T18:41:15.693Z,69.24
2024-01-14T18:43:44.595Z,69.34
2024-01-14T18:46:13.810Z,69.02
2024-01-14T18:48:42.453Z,68.71
2024-01-14T18:51:12.165Z,68.60
2024-01-14T18:53:40.537Z,68.73
2024-01-14T18:56:09.672Z,69.58
2024-01-14T18:58:38.171Z,69.55
2024-01-14T19:01:07.249Z,70.07
2024-01-14T19:03:36.107Z,70.08
2024-01-14T19:06:07.705Z,70.02
2024-01-14T19:08:36.372Z,70.23
2024-01-14T19:11:06.406Z,70.49
2024-01-14T19:13:35.057Z,70.18
2024-01-14T19:16:04.900Z,71.27
2024-01-14T19:18:33.826Z,71.39
2024-01-14T19:21:02.662Z,70.76
2024-01-14T19:23:31.289Z,71.21
2024-01-14T19:26:00.006Z,70.39
2024-01-14T19:28:28.753Z,70.54
2024-01-14T19:30:57.505Z,70.96
2024-01-14T19:33:26.310Z,70.49
2024-01-14T19:35:55.075Z,70.79
2024-01-14T19:38:23.776Z,70.82
2024-01-14T19:40:52.375Z,70.48
2024-01-14T19:43:20.950Z,70.32
2024-01-14T19:45:49.994Z,70.42
2024-01-14T19:48:19.128Z,70.41
2024-01-14T19:50:48.187Z,70.46
2024-01-14T19:53:19.890Z,70.92
2024-01-14T19:55:48.587Z,70.66
2024-01-14T19:58:17.306Z,70.56
2024-01-14T20:00:46.114Z,70.41
2024-01-14T20:03:14.969Z,70.34
2024-01-14T20:05:46.780Z,69.51
2024-01-14T20:08:15.452Z,69.79
2024-01-14T20:10:44.420Z,69.94
2024-01-14T20:13:12.975Z,69.64
2024-01-14T20:15:44.636Z,70.14
2024-01-14T20:18:13.327Z,69.62
2024-01-14T20:20:41.947Z,69.39
2024-01-14T20:23:10.580Z,69.18
2024-01-14T20:25:39.079Z,69.33
2024-01-14T20:28:07.692Z,68.80
2024-01-14T20:30:36.314Z,69.19
2024-01-14T20:33:05.515Z,69.20
2024-01-14T20:35:34.125Z,69.06
2024-01-14T20:38:02.687Z,69.40
2024-01-14T20:40:31.345Z,68.98
2024-01-14T20:43:02.190Z,68.88
2024-01-14T20:45:31.042Z,68.71
2024-01-14T20:47:59.694Z,68.54
2024-01-14T20:50:28.382Z,68.50
2024-01-14T20:52:56.919Z,68.59
2024-01-14T20:55:25.520Z,68.76
2024-01-14T20:57:54.140Z,67.96
2024-01-14T21:00:23.119Z,67.96
2024-01-14T21:02:52.281Z,68.68
2024-01-14T21:05:21.453Z,68.44
2024-01-14T21:07:50.470Z,68.42
2024-01-14T21:10:19.701Z,68.55
2024-01-14T21:12:48.359Z,67.96
2024-01-14T21:15:17.070Z,68.07
2024-01-14T21:17:45.642Z,67.87
2024-01-14T21:20:14.542Z,68.09
2024-01-14T21:22:43.061Z,68.28
2024-01-14T21:25:11.556Z,68.54
2024-01-14T21:27:41.834Z,68.29
2024-01-14T21:30:11.656Z,68.52
2024-01-14T21:32:40.088Z,69.01
2024-01-14T21:35:09.041Z,69.03
2024-01-14T21:37:37.659Z,69.61
2024-01-14T21:55:47.178Z,71.14
2024-01-14T21:58:16.016Z,70.90
2024-01-14T22:00:44.623Z,71.33
2024-01-14T22:03:13.388Z,71.42
2024-01-14T22:05:42.839Z,71.18
2024-01-14T22:08:11.594Z,71.24
2024-01-14T22:10:40.529Z,71.30
2024-01-14T22:13:08.998Z,71.10
2024-01-14T22:15:38.550Z,70.63
2024-01-14T22:18:07.249Z,70.09
2024-01-14T22:20:35.788Z,70.55
2024-01-14T22:23:04.545Z,70.63
2024-01-14T22:25:33.161Z,70.28
2024-01-14T22:28:01.914Z,70.12
2024-01-14T22:30:30.655Z,70.25
2024-01-14T22:32:59.355Z,70.42
2024-01-14T22:35:30.716Z,70.47
2024-01-14T22:37:59.269Z,71.22
2024-01-14T22:40:27.782Z,71.00
2024-01-14T22:42:56.388Z,71.05
2024-01-14T22:45:25.079Z,70.96
2024-01-14T22:47:53.682Z,70.49
2024-01-14T22:50:22.691Z,69.92
2024-01-14T22:52:51.283Z,69.25
2024-01-14T22:55:19.882Z,68.37
2024-01-14T22:57:48.510Z,68.16
2024-01-14T23:00:26.753Z,67.74
2024-01-14T23:02:56.706Z,68.00
2024-01-14T23:05:25.325Z,67.80
2024-01-14T23:07:54.206Z,69.00
2024-01-14T23:10:22.798Z,69.38
2024-01-14T23:12:51.649Z,69.80
2024-01-14T23:15:20.615Z,69.47
2024-01-14T23:17:49.347Z,69.49
2024-01-14T23:20:17.946Z,68.39
2024-01-14T23:22:46.429Z,69.21
2024-01-14T23:25:15.038Z,70.38
2024-01-14T23:27:45.696Z,70.06
2024-01-14T23:30:15.926Z,69.70
2024-01-14T23:32:44.559Z,69.71
2024-01-14T23:35:13.270Z,69.68
2024-01-14T23:37:41.829Z,69.17
2024-01-14T23:40:10.945Z,69.46
2024-01-14T23:42:39.615Z,69.27
2024-01-14T23:45:08.945Z,69.08
2024-01-14T23:47:37.608Z,69.18
2024-01-14T23:50:06.736Z,69.06
2024-01-14T23:52:35.394Z,68.91
2024-01-14T23:55:04.855Z,68.08
2024-01-14T23:57:33.391Z,69.22
